Terminal Aerodrome Forecast
Issued by NWS Pittsburgh, PA

Current Version | Previous Version | Graphics & Text | Print | Product List | Glossary On
Versions: 1 2 3 4 5 6 7 8 9 10 11 12 13 14 15 16 17 18 19 20 21 22 23 24 25 26 27 28 29 30 31 32 33 34 35 36 37 38 39
837
FTUS41 KPBZ 172331
TAFPIT
TAF
KPIT 172331Z 1800/1906 20005KT 3SM -SN OVC008
      TEMPO 1800/1802 1SM -SN
     FM180300 26008KT P6SM VCSH OVC010
     FM180600 26007KT P6SM BKN015
     FM181400 30008KT P6SM OVC025
     FM181800 21005KT P6SM SCT035=

USA.gov is the U.S. government's official web portal to all federal, state and local government web resources and services.